sensor_id;sensor_type;location;lat;lon;timestamp;pressure;altitude;pressure_sealevel;temperature;humidity
26859;BME280;14429;48.346;16.338;2023-07-02T00:00:07;98879.66;;;25.95;47.22
26859;BME280;14429;48.346;16.338;2023-07-02T00:02:34;98873.03;;;25.85;47.42
26859;BME280;14429;48.346;16.338;2023-07-02T00:05:00;98882.66;;;25.87;47.16
26859;BME280;14429;48.346;16.338;2023-07-02T00:07:25;98887.97;;;25.82;47.08
26859;BME280;14429;48.346;16.338;2023-07-02T00:09:51;98881.97;;;25.98;47.21
26859;BME280;14429;48.346;16.338;2023-07-02T00:12:16;98880.97;;;25.93;46.77
26859;BME280;14429;48.346;16.338;2023-07-02T00:14:42;98875.44;;;25.99;47.33
26859;BME280;14429;48.346;16.338;2023-07-02T00:17:07;98880.91;;;25.99;47.35
26859;BME280;14429;48.346;16.338;2023-07-02T00:19:35;98879.50;;;25.60;45.13
26859;BME280;14429;48.346;16.338;2023-07-02T00:22:00;98867.50;;;25.91;47.09
26859;BME280;14429;48.346;16.338;2023-07-02T00:24:26;98866.63;;;25.97;46.88
26859;BME280;14429;48.346;16.338;2023-07-02T00:26:51;98872.53;;;25.94;47.17
26859;BME280;14429;48.346;16.338;2023-07-02T00:29:17;98877.56;;;25.97;47.09
26859;BME280;14429;48.346;16.338;2023-07-02T00:31:42;98871.47;;;25.95;47.02
26859;BME280;14429;48.346;16.338;2023-07-02T00:34:08;98864.16;;;25.89;45.35
26859;BME280;14429;48.346;16.338;2023-07-02T00:36:34;98870.22;;;25.91;47.03
26859;BME280;14429;48.346;16.338;2023-07-02T00:39:00;98875.91;;;25.96;46.95
26859;BME280;14429;48.346;16.338;2023-07-02T00:41:26;98878.78;;;26.07;46.88
26859;BME280;14429;48.346;16.338;2023-07-02T00:43:51;98872.97;;;25.91;45.92
26859;BME280;14429;48.346;16.338;2023-07-02T00:46:18;98877.56;;;25.97;47.11
26859;BME280;14429;48.346;16.338;2023-07-02T00:48:44;98871.19;;;26.03;46.90
26859;BME280;14429;48.346;16.338;2023-07-02T00:51:11;98865.72;;;26.09;46.48
26859;BME280;14429;48.346;16.338;2023-07-02T00:53:38;98872.13;;;25.91;47.26
26859;BME280;14429;48.346;16.338;2023-07-02T00:56:04;98876.47;;;25.74;44.77
26859;BME280;14429;48.346;16.338;2023-07-02T00:58:29;98881.66;;;25.51;47.61
26859;BME280;14429;48.346;16.338;2023-07-02T01:00:55;98883.09;;;25.84;47.00
26859;BME280;14429;48.346;16.338;2023-07-02T01:03:20;98884.38;;;25.51;47.51
26859;BME280;14429;48.346;16.338;2023-07-02T01:05:46;98879.50;;;25.60;48.00
26859;BME280;14429;48.346;16.338;2023-07-02T01:08:11;98884.00;;;25.78;47.51
26859;BME280;14429;48.346;16.338;2023-07-02T01:10:38;98871.47;;;25.65;45.89
26859;BME280;14429;48.346;16.338;2023-07-02T01:13:07;98869.25;;;25.86;47.28
26859;BME280;14429;48.346;16.338;2023-07-02T01:15:34;98872.53;;;25.94;46.86
26859;BME280;14429;48.346;16.338;2023-07-02T01:18:00;98872.97;;;25.91;47.22
26859;BME280;14429;48.346;16.338;2023-07-02T01:20:27;98871.31;;;25.90;47.30
26859;BME280;14429;48.346;16.338;2023-07-02T01:22:53;98870.94;;;25.80;47.21
26859;BME280;14429;48.346;16.338;2023-07-02T01:25:18;98874.66;;;25.92;47.14
26859;BME280;14429;48.346;16.338;2023-07-02T01:27:44;98868.28;;;25.98;46.68
26859;BME280;14429;48.346;16.338;2023-07-02T01:30:10;98873.44;;;25.88;47.12
26859;BME280;14429;48.346;16.338;2023-07-02T01:32:37;98870.22;;;25.91;47.20
26859;BME280;14429;48.346;16.338;2023-07-02T01:35:03;98872.09;;;25.97;47.01
26859;BME280;14429;48.346;16.338;2023-07-02T01:37:30;98866.63;;;25.97;46.96
26859;BME280;14429;48.346;16.338;2023-07-02T01:39:55;98866.78;;;26.02;46.60
26859;BME280;14429;48.346;16.338;2023-07-02T01:42:20;98869.53;;;26.02;46.88
26859;BME280;14429;48.346;16.338;2023-07-02T01:44:47;98872.09;;;25.97;47.06
26859;BME280;14429;48.346;16.338;2023-07-02T01:47:13;98867.81;;;25.40;44.76
26859;BME280;14429;48.346;16.338;2023-07-02T01:49:39;98871.31;;;25.90;47.27
26859;BME280;14429;48.346;16.338;2023-07-02T01:52:05;98868.28;;;25.98;46.69
26859;BME280;14429;48.346;16.338;2023-07-02T01:54:34;98868.28;;;25.98;47.11
26859;BME280;14429;48.346;16.338;2023-07-02T01:56:59;98864.97;;;25.96;47.00
26859;BME280;14429;48.346;16.338;2023-07-02T01:59:25;98864.88;;;26.02;46.74
26859;BME280;14429;48.346;16.338;2023-07-02T02:01:51;98866.78;;;26.02;46.48
26859;BME280;14429;48.346;16.338;2023-07-02T02:04:16;98864.06;;;26.02;46.60
26859;BME280;14429;48.346;16.338;2023-07-02T02:06:42;98866.19;;;26.00;46.80
26859;BME280;14429;48.346;16.338;2023-07-02T02:09:08;98865.97;;;26.01;46.86
26859;BME280;14429;48.346;16.338;2023-07-02T02:11:39;98858.59;;;26.02;46.80
26859;BME280;14429;48.346;16.338;2023-07-02T02:14:05;98866.59;;;26.03;46.24
26859;BME280;14429;48.346;16.338;2023-07-02T02:16:31;98864.06;;;26.02;46.70
26859;BME280;14429;48.346;16.338;2023-07-02T02:18:56;98863.94;;;25.91;46.98
26859;BME280;14429;48.346;16.338;2023-07-02T02:21:22;98864.72;;;25.73;46.26
26859;BME280;14429;48.346;16.338;2023-07-02T02:23:48;98867.50;;;25.91;46.80
26859;BME280;14429;48.346;16.338;2023-07-02T02:26:14;98864.97;;;25.96;46.50
26859;BME280;14429;48.346;16.338;2023-07-02T02:28:41;98869.78;;;25.94;46.89
26859;BME280;14429;48.346;16.338;2023-07-02T02:31:07;98872.31;;;25.65;45.31
26859;BME280;14429;48.346;16.338;2023-07-02T02:33:33;98871.84;;;25.74;47.11
26859;BME280;14429;48.346;16.338;2023-07-02T02:35:58;98866.13;;;25.39;46.14
26859;BME280;14429;48.346;16.338;2023-07-02T02:38:23;98869.97;;;25.69;47.37
26859;BME280;14429;48.346;16.338;2023-07-02T02:40:49;98870.25;;;25.61;47.36
26859;BME280;14429;48.346;16.338;2023-07-02T02:43:14;98866.72;;;24.98;44.78
26859;BME280;14429;48.346;16.338;2023-07-02T02:45:41;98867.78;;;25.53;47.82
26859;BME280;14429;48.346;16.338;2023-07-02T02:48:07;98876.19;;;25.51;47.23
26859;BME280;14429;48.346;16.338;2023-07-02T02:50:32;98877.03;;;25.52;47.84
26859;BME280;14429;48.346;16.338;2023-07-02T02:52:57;98874.56;;;25.44;47.39
26859;BME280;14429;48.346;16.338;2023-07-02T02:55:23;98880.25;;;25.36;45.54
26859;BME280;14429;48.346;16.338;2023-07-02T02:57:48;98876.53;;;25.61;47.47
26859;BME280;14429;48.346;16.338;2023-07-02T03:00:14;98870.25;;;25.61;47.52
26859;BME280;14429;48.346;16.338;2023-07-02T03:02:41;98869.81;;;25.64;47.55
26859;BME280;14429;48.346;16.338;2023-07-02T03:05:07;98872.31;;;25.65;47.45
26859;BME280;14429;48.346;16.338;2023-07-02T03:07:33;98872.09;;;25.67;47.54
26859;BME280;14429;48.346;16.338;2023-07-02T03:09:58;98878.97;;;25.75;46.80
26859;BME280;14429;48.346;16.338;2023-07-02T03:12:25;98876.91;;;25.71;47.18
26859;BME280;14429;48.346;16.338;2023-07-02T03:14:51;98874.09;;;25.47;47.60
26859;BME280;14429;48.346;16.338;2023-07-02T03:17:16;98871.97;;;25.55;47.59
26859;BME280;14429;48.346;16.338;2023-07-02T03:19:43;98874.06;;;25.53;47.67
26859;BME280;14429;48.346;16.338;2023-07-02T03:22:08;98874.00;;;25.66;46.82
26859;BME280;14429;48.346;16.338;2023-07-02T03:24:34;98878.25;;;25.56;47.33
26859;BME280;14429;48.346;16.338;2023-07-02T03:26:59;98876.00;;;25.40;47.31
26859;BME280;14429;48.346;16.338;2023-07-02T03:29:25;98879.13;;;25.50;47.44
26859;BME280;14429;48.346;16.338;2023-07-02T03:31:50;98882.84;;;25.62;47.30
26859;BME280;14429;48.346;16.338;2023-07-02T03:34:15;98880.09;;;25.18;47.87
26859;BME280;14429;48.346;16.338;2023-07-02T03:36:42;98878.75;;;25.40;48.21
26859;BME280;14429;48.346;16.338;2023-07-02T03:39:08;98882.50;;;25.39;47.75
26859;BME280;14429;48.346;16.338;2023-07-02T03:41:33;98875.78;;;25.42;47.80
26859;BME280;14429;48.346;16.338;2023-07-02T03:43:59;98882.84;;;25.62;47.32
26859;BME280;14429;48.346;16.338;2023-07-02T03:46:24;98880.31;;;25.17;45.47
26859;BME280;14429;48.346;16.338;2023-07-02T03:48:49;98887.06;;;25.58;47.73
26859;BME280;14429;48.346;16.338;2023-07-02T03:51:15;98890.72;;;24.83;46.35
26859;BME280;14429;48.346;16.338;2023-07-02T03:53:42;98885.03;;;25.41;47.71
26859;BME280;14429;48.346;16.338;2023-07-02T03:56:07;98896.84;;;25.28;46.97
26859;BME280;14429;48.346;16.338;2023-07-02T03:58:33;98894.28;;;25.40;47.81
26859;BME280;14429;48.346;16.338;2023-07-02T04:00:58;98900.97;;;25.56;47.51
26859;BME280;14429;48.346;16.338;2023-07-02T04:03:23;98908.75;;;25.53;47.44
26859;BME280;14429;48.346;16.338;2023-07-02T04:05:49;98901.03;;;25.37;46.13
26859;BME280;14429;48.346;16.338;2023-07-02T04:08:14;98913.63;;;25.32;47.81
26859;BME280;14429;48.346;16.338;2023-07-02T04:10:41;98914.25;;;25.40;47.66
26859;BME280;14429;48.346;16.338;2023-07-02T04:13:07;98910.25;;;25.49;47.23
26859;BME280;14429;48.346;16.338;2023-07-02T04:15:32;98912.75;;;25.50;47.54
26859;BME280;14429;48.346;16.338;2023-07-02T04:17:58;98921.63;;;25.33;47.53
26859;BME280;14429;48.346;16.338;2023-07-02T04:20:23;98918.84;;;25.40;47.90
26859;BME280;14429;48.346;16.338;2023-07-02T04:22:49;98926.22;;;25.45;47.89
26859;BME280;14429;48.346;16.338;2023-07-02T04:25:15;98927.06;;;25.46;47.39
26859;BME280;14429;48.346;16.338;2023-07-02T04:27:42;98931.06;;;25.37;47.75
26859;BME280;14429;48.346;16.338;2023-07-02T04:30:08;98921.22;;;25.36;46.05
26859;BME280;14429;48.346;16.338;2023-07-02T04:32:33;98932.50;;;25.52;47.32
26859;BME280;14429;48.346;16.338;2023-07-02T04:34:59;98932.91;;;25.56;47.01
26859;BME280;14429;48.346;16.338;2023-07-02T04:37:24;98940.53;;;25.47;47.75
26859;BME280;14429;48.346;16.338;2023-07-02T04:39:50;98948.06;;;25.39;47.66
26859;BME280;14429;48.346;16.338;2023-07-02T04:42:15;98948.91;;;25.46;47.71
26859;BME280;14429;48.346;16.338;2023-07-02T04:44:42;98950.97;;;24.69;49.49
26859;BME280;14429;48.346;16.338;2023-07-02T04:47:07;98950.31;;;24.99;48.39
26859;BME280;14429;48.346;16.338;2023-07-02T04:49:33;98944.72;;;25.37;47.76
26859;BME280;14429;48.346;16.338;2023-07-02T04:51:58;98947.00;;;25.53;47.35
26859;BME280;14429;48.346;16.338;2023-07-02T04:54:24;98948.66;;;25.54;47.57
26859;BME280;14429;48.346;16.338;2023-07-02T04:56:49;98956.91;;;25.41;47.83
26859;BME280;14429;48.346;16.338;2023-07-02T04:59:14;98964.47;;;25.45;47.61
26859;BME280;14429;48.346;16.338;2023-07-02T05:01:42;98956.03;;;25.47;46.73
26859;BME280;14429;48.346;16.338;2023-07-02T05:04:09;98957.81;;;25.22;46.92
26859;BME280;14429;48.346;16.338;2023-07-02T05:06:34;98964.44;;;25.39;47.97
26859;BME280;14429;48.346;16.338;2023-07-02T05:09:00;98973.94;;;25.37;48.05
26859;BME280;14429;48.346;16.338;2023-07-02T05:11:25;98970.34;;;25.49;47.42
26859;BME280;14429;48.346;16.338;2023-07-02T05:13:51;98970.34;;;25.49;47.19
26859;BME280;14429;48.346;16.338;2023-07-02T05:16:16;98973.72;;;25.44;47.93
26859;BME280;14429;48.346;16.338;2023-07-02T05:18:43;98976.44;;;25.51;47.65
26859;BME280;14429;48.346;16.338;2023-07-02T05:21:08;98972.09;;;25.18;48.13
26859;BME280;14429;48.346;16.338;2023-07-02T05:23:34;98981.69;;;25.52;47.12
26859;BME280;14429;48.346;16.338;2023-07-02T05:25:59;98985.41;;;25.58;47.37
26859;BME280;14429;48.346;16.338;2023-07-02T05:28:25;98988.22;;;25.45;47.62
26859;BME280;14429;48.346;16.338;2023-07-02T05:30:50;98993.88;;;25.50;47.50
26859;BME280;14429;48.346;16.338;2023-07-02T05:33:15;99000.78;;;25.59;47.11
26859;BME280;14429;48.346;16.338;2023-07-02T05:35:42;99016.94;;;25.67;47.18
26859;BME280;14429;48.346;16.338;2023-07-02T05:38:08;99016.13;;;25.60;47.48
26859;BME280;14429;48.346;16.338;2023-07-02T05:40:33;99014.47;;;25.52;47.78
26859;BME280;14429;48.346;16.338;2023-07-02T05:42:59;99016.13;;;25.60;47.27
26859;BME280;14429;48.346;16.338;2023-07-02T05:45:24;99019.25;;;25.63;46.87
26859;BME280;14429;48.346;16.338;2023-07-02T05:47:49;99026.63;;;25.63;47.32
26859;BME280;14429;48.346;16.338;2023-07-02T05:50:15;99024.13;;;25.42;47.89
26859;BME280;14429;48.346;16.338;2023-07-02T05:52:42;99029.16;;;25.39;48.15
26859;BME280;14429;48.346;16.338;2023-07-02T05:55:08;99024.13;;;25.55;47.22
26859;BME280;14429;48.346;16.338;2023-07-02T05:57:33;99033.81;;;25.51;47.53
26859;BME280;14429;48.346;16.338;2023-07-02T05:59:59;99031.25;;;25.43;48.44
26859;BME280;14429;48.346;16.338;2023-07-02T06:02:24;99047.63;;;25.43;47.93
26859;BME280;14429;48.346;16.338;2023-07-02T06:04:50;99059.84;;;25.53;47.47
26859;BME280;14429;48.346;16.338;2023-07-02T06:07:15;99056.03;;;25.54;47.76
26859;BME280;14429;48.346;16.338;2023-07-02T06:09:42;99061.09;;;25.38;48.67
26859;BME280;14429;48.346;16.338;2023-07-02T06:12:08;99064.06;;;25.49;47.97
26859;BME280;14429;48.346;16.338;2023-07-02T06:14:33;99061.50;;;25.61;47.33
26859;BME280;14429;48.346;16.338;2023-07-02T06:16:59;99068.63;;;25.62;47.71
26859;BME280;14429;48.346;16.338;2023-07-02T06:19:24;99065.28;;;25.60;47.90
26859;BME280;14429;48.346;16.338;2023-07-02T06:21:49;99069.94;;;25.59;47.83
26859;BME280;14429;48.346;16.338;2023-07-02T06:24:15;99085.44;;;25.65;47.26
26859;BME280;14429;48.346;16.338;2023-07-02T06:26:42;99085.25;;;25.67;47.74
26859;BME280;14429;48.346;16.338;2023-07-02T06:29:07;99078.31;;;25.58;47.96
26859;BME280;14429;48.346;16.338;2023-07-02T06:31:33;99079.97;;;25.65;47.67
26859;BME280;14429;48.346;16.338;2023-07-02T06:33:58;99076.59;;;25.76;46.96
26859;BME280;14429;48.346;16.338;2023-07-02T06:36:23;99074.94;;;25.69;47.58
26859;BME280;14429;48.346;16.338;2023-07-02T06:38:49;99071.59;;;25.67;47.65
26859;BME280;14429;48.346;16.338;2023-07-02T06:41:14;99068.84;;;25.67;47.43
26859;BME280;14429;48.346;16.338;2023-07-02T06:43:42;99069.69;;;25.73;47.22
26859;BME280;14429;48.346;16.338;2023-07-02T06:46:09;99076.00;;;25.68;47.63
26859;BME280;14429;48.346;16.338;2023-07-02T06:48:35;99072.44;;;25.61;47.78
26859;BME280;14429;48.346;16.338;2023-07-02T06:51:00;99066.31;;;25.71;47.26
26859;BME280;14429;48.346;16.338;2023-07-02T06:53:26;99075.75;;;25.75;47.45
26859;BME280;14429;48.346;16.338;2023-07-02T06:55:51;99067.78;;;25.74;47.42
26859;BME280;14429;48.346;16.338;2023-07-02T06:58:17;99072.00;;;25.64;48.75
26859;BME280;14429;48.346;16.338;2023-07-02T07:00:43;99066.28;;;25.78;47.13
26859;BME280;14429;48.346;16.338;2023-07-02T07:03:09;99064.38;;;25.78;47.55
26859;BME280;14429;48.346;16.338;2023-07-02T07:05:34;99067.06;;;25.91;47.16
26859;BME280;14429;48.346;16.338;2023-07-02T07:08:00;99066.22;;;25.91;47.16
26859;BME280;14429;48.346;16.338;2023-07-02T07:10:25;99066.03;;;26.35;48.71
26859;BME280;14429;48.346;16.338;2023-07-02T07:12:51;99070.00;;;26.39;46.00
26859;BME280;14429;48.346;16.338;2023-07-02T07:15:16;99065.81;;;26.37;46.08
26859;BME280;14429;48.346;16.338;2023-07-02T07:17:43;99068.25;;;26.51;45.80
26859;BME280;14429;48.346;16.338;2023-07-02T07:20:09;99058.88;;;26.65;45.08
26859;BME280;14429;48.346;16.338;2023-07-02T07:22:35;99050.84;;;26.39;45.92
26859;BME280;14429;48.346;16.338;2023-07-02T07:25:00;99059.88;;;26.40;46.19
26859;BME280;14429;48.346;16.338;2023-07-02T07:27:25;99063.22;;;26.48;46.79
26859;BME280;14429;48.346;16.338;2023-07-02T07:29:51;99052.84;;;26.56;48.59
26859;BME280;14429;48.346;16.338;2023-07-02T07:32:16;99068.16;;;26.64;45.47
26859;BME280;14429;48.346;16.338;2023-07-02T07:34:43;99063.97;;;26.61;45.87
26859;BME280;14429;48.346;16.338;2023-07-02T07:37:08;99045.13;;;26.47;45.96
26859;BME280;14429;48.346;16.338;2023-07-02T07:39:34;99053.25;;;26.29;46.34
26859;BME280;14429;48.346;16.338;2023-07-02T07:42:00;99061.16;;;26.07;46.90
26859;BME280;14429;48.346;16.338;2023-07-02T07:44:25;99058.84;;;25.91;47.27
26859;BME280;14429;48.346;16.338;2023-07-02T07:46:51;99057.13;;;26.03;47.02
26859;BME280;14429;48.346;16.338;2023-07-02T07:49:16;99050.13;;;26.20;46.40
26859;BME280;14429;48.346;16.338;2023-07-02T07:51:43;99046.41;;;26.08;47.01
26859;BME280;14429;48.346;16.338;2023-07-02T07:54:08;99049.31;;;26.13;46.70
26859;BME280;14429;48.346;16.338;2023-07-02T07:56:34;99053.56;;;26.09;47.11
26859;BME280;14429;48.346;16.338;2023-07-02T07:58:59;99048.72;;;26.11;46.60
26859;BME280;14429;48.346;16.338;2023-07-02T08:01:26;99053.53;;;26.02;47.21
26859;BME280;14429;48.346;16.338;2023-07-02T08:03:51;99049.56;;;26.11;47.04
26859;BME280;14429;48.346;16.338;2023-07-02T08:06:16;99052.50;;;26.10;46.84
26859;BME280;14429;48.346;16.338;2023-07-02T08:08:43;99052.06;;;26.13;46.66
26859;BME280;14429;48.346;16.338;2023-07-02T08:11:09;99045.34;;;26.09;47.19
26859;BME280;14429;48.346;16.338;2023-07-02T08:13:34;99031.28;;;25.99;47.53
26859;BME280;14429;48.346;16.338;2023-07-02T08:15:59;99034.72;;;25.88;47.44
26859;BME280;14429;48.346;16.338;2023-07-02T08:18:25;99022.03;;;26.00;47.31
26859;BME280;14429;48.346;16.338;2023-07-02T08:20:50;99025.63;;;26.07;47.30
26859;BME280;14429;48.346;16.338;2023-07-02T08:23:16;99025.19;;;25.97;47.33
26859;BME280;14429;48.346;16.338;2023-07-02T08:25:42;99036.72;;;26.05;47.00
26859;BME280;14429;48.346;16.338;2023-07-02T08:28:08;99031.25;;;26.12;47.95
26859;BME280;14429;48.346;16.338;2023-07-02T08:30:33;99036.69;;;26.18;47.16
26859;BME280;14429;48.346;16.338;2023-07-02T08:32:59;99026.44;;;26.01;47.44
26859;BME280;14429;48.346;16.338;2023-07-02T08:35:24;99038.63;;;26.11;47.38
26859;BME280;14429;48.346;16.338;2023-07-02T08:37:49;99033.97;;;26.12;47.11
26859;BME280;14429;48.346;16.338;2023-07-02T08:40:15;99037.56;;;26.12;48.48
26859;BME280;14429;48.346;16.338;2023-07-02T08:42:42;99037.69;;;26.24;49.09
26859;BME280;14429;48.346;16.338;2023-07-02T08:45:09;99043.81;;;26.26;47.53
26859;BME280;14429;48.346;16.338;2023-07-02T08:47:35;99035.19;;;26.22;47.11
26859;BME280;14429;48.346;16.338;2023-07-02T08:50:01;99026.38;;;26.14;47.27
26859;BME280;14429;48.346;16.338;2023-07-02T08:52:27;99007.91;;;26.03;47.78
26859;BME280;14429;48.346;16.338;2023-07-02T08:54:52;99027.03;;;26.16;47.00
26859;BME280;14429;48.346;16.338;2023-07-02T08:57:18;99033.09;;;26.18;47.13
26859;BME280;14429;48.346;16.338;2023-07-02T08:59:44;99034.69;;;26.31;49.89
26859;BME280;14429;48.346;16.338;2023-07-02T09:02:10;99025.00;;;26.35;46.96
26859;BME280;14429;48.346;16.338;2023-07-02T09:04:35;99035.06;;;26.41;46.38
26859;BME280;14429;48.346;16.338;2023-07-02T09:07:05;99024.19;;;26.28;46.87
26859;BME280;14429;48.346;16.338;2023-07-02T09:09:31;99029.41;;;26.36;46.96
26859;BME280;14429;48.346;16.338;2023-07-02T09:11:56;99027.06;;;26.40;46.88
26859;BME280;14429;48.346;16.338;2023-07-02T09:14:26;99012.22;;;26.53;48.03
26859;BME280;14429;48.346;16.338;2023-07-02T09:17:03;99009.81;;;26.39;46.67
26859;BME280;14429;48.346;16.338;2023-07-02T09:19:28;99024.28;;;26.16;47.28
26859;BME280;14429;48.346;16.338;2023-07-02T09:21:57;99011.00;;;26.19;47.33
26859;BME280;14429;48.346;16.338;2023-07-02T09:24:23;99026.31;;;26.26;46.70
26859;BME280;14429;48.346;16.338;2023-07-02T09:26:50;99018.72;;;26.28;46.92
26859;BME280;14429;48.346;16.338;2023-07-02T09:29:18;99024.59;;;26.32;46.95
26859;BME280;14429;48.346;16.338;2023-07-02T09:31:44;99021.66;;;26.33;47.04
26859;BME280;14429;48.346;16.338;2023-07-02T09:34:12;99022.88;;;26.37;47.27
26859;BME280;14429;48.346;16.338;2023-07-02T09:36:37;99023.72;;;26.38;46.67
26859;BME280;14429;48.346;16.338;2023-07-02T09:39:03;99028.78;;;26.34;46.81
26859;BME280;14429;48.346;16.338;2023-07-02T09:41:28;99016.50;;;26.43;48.07
26859;BME280;14429;48.346;16.338;2023-07-02T09:43:54;99023.75;;;26.31;46.76
26859;BME280;14429;48.346;16.338;2023-07-02T09:46:19;99021.72;;;26.21;47.06
26859;BME280;14429;48.346;16.338;2023-07-02T09:48:45;99040.88;;;26.21;47.05
26859;BME280;14429;48.346;16.338;2023-07-02T09:51:12;99040.28;;;26.12;47.52
26859;BME280;14429;48.346;16.338;2023-07-02T09:53:38;99038.81;;;26.10;47.63
26859;BME280;14429;48.346;16.338;2023-07-02T09:56:04;99042.78;;;26.14;47.18
26859;BME280;14429;48.346;16.338;2023-07-02T09:58:29;99051.22;;;26.06;47.62
26859;BME280;14429;48.346;16.338;2023-07-02T10:00:54;99055.47;;;26.08;47.59
26859;BME280;14429;48.346;16.338;2023-07-02T10:03:30;99054.63;;;26.08;47.65
26859;BME280;14429;48.346;16.338;2023-07-02T10:06:03;99053.97;;;26.12;47.23
26859;BME280;14429;48.346;16.338;2023-07-02T10:08:30;99054.97;;;26.18;47.32
26859;BME280;14429;48.346;16.338;2023-07-02T10:11:06;99058.81;;;26.04;47.78
26859;BME280;14429;48.346;16.338;2023-07-02T10:13:31;99061.41;;;25.86;48.38
26859;BME280;14429;48.346;16.338;2023-07-02T10:16:01;99048.31;;;26.01;47.51
26859;BME280;14429;48.346;16.338;2023-07-02T10:18:26;99050.06;;;25.89;48.17
26859;BME280;14429;48.346;16.338;2023-07-02T10:20:52;99047.25;;;26.02;47.70
26859;BME280;14429;48.346;16.338;2023-07-02T10:23:17;99051.47;;;26.11;49.53
26859;BME280;14429;48.346;16.338;2023-07-02T10:25:44;99044.06;;;26.05;47.50
26859;BME280;14429;48.346;16.338;2023-07-02T10:28:17;99037.78;;;26.11;47.66
26859;BME280;14429;48.346;16.338;2023-07-02T10:30:43;99044.03;;;26.18;47.41
26859;BME280;14429;48.346;16.338;2023-07-02T10:33:10;99036.47;;;26.20;47.67
26859;BME280;14429;48.346;16.338;2023-07-02T10:35:35;99048.25;;;26.14;47.43
26859;BME280;14429;48.346;16.338;2023-07-02T10:38:01;99050.56;;;26.17;47.27
26859;BME280;14429;48.346;16.338;2023-07-02T10:40:26;99044.03;;;26.18;47.30
26859;BME280;14429;48.346;16.338;2023-07-02T10:42:53;99050.00;;;26.08;47.90
26859;BME280;14429;48.346;16.338;2023-07-02T10:45:30;99052.22;;;26.18;47.96
26859;BME280;14429;48.346;16.338;2023-07-02T10:47:56;99061.91;;;26.20;47.19
26859;BME280;14429;48.346;16.338;2023-07-02T10:50:21;99053.13;;;26.12;47.72
26859;BME280;14429;48.346;16.338;2023-07-02T10:52:47;99063.38;;;26.23;47.52
26859;BME280;14429;48.346;16.338;2023-07-02T10:55:16;99055.44;;;26.15;47.72
26859;BME280;14429;48.346;16.338;2023-07-02T10:57:42;99060.84;;;26.21;47.33
26859;BME280;14429;48.346;16.338;2023-07-02T11:00:10;99058.72;;;26.29;47.23
26859;BME280;14429;48.346;16.338;2023-07-02T11:02:36;99062.16;;;26.19;47.71
26859;BME280;14429;48.346;16.338;2023-07-02T11:05:01;99071.00;;;26.14;47.80
26859;BME280;14429;48.346;16.338;2023-07-02T11:33:36;99100.75;;;25.85;48.50
26859;BME280;14429;48.346;16.338;2023-07-02T11:36:03;99096.88;;;25.99;48.09
26859;BME280;14429;48.346;16.338;2023-07-02T11:38:28;99098.34;;;26.14;47.46
26859;BME280;14429;48.346;16.338;2023-07-02T11:40:54;99093.25;;;26.18;47.79
26859;BME280;14429;48.346;16.338;2023-07-02T11:43:19;99089.91;;;26.16;47.84
26859;BME280;14429;48.346;16.338;2023-07-02T11:45:44;99079.84;;;26.10;47.85
26859;BME280;14429;48.346;16.338;2023-07-02T11:48:10;99087.38;;;26.21;47.26
26859;BME280;14429;48.346;16.338;2023-07-02T11:50:37;99097.91;;;26.17;47.48
26859;BME280;14429;48.346;16.338;2023-07-02T11:53:03;99099.00;;;25.97;48.24
26859;BME280;14429;48.346;16.338;2023-07-02T11:55:28;99107.19;;;26.10;47.90
26859;BME280;14429;48.346;16.338;2023-07-02T11:57:53;99102.13;;;26.13;47.28
26859;BME280;14429;48.346;16.338;2023-07-02T12:00:19;99102.56;;;26.04;47.79
26859;BME280;14429;48.346;16.338;2023-07-02T12:02:44;99098.53;;;26.06;47.80
26859;BME280;14429;48.346;16.338;2023-07-02T12:05:10;99098.34;;;26.14;47.59
26859;BME280;14429;48.346;16.338;2023-07-02T12:07:36;99110.06;;;26.21;47.20
26859;BME280;14429;48.346;16.338;2023-07-02T12:10:02;99099.19;;;26.15;47.51
26859;BME280;14429;48.346;16.338;2023-07-02T12:12:27;99106.75;;;26.13;47.57
26859;BME280;14429;48.346;16.338;2023-07-02T12:14:53;99101.28;;;26.13;47.56
26859;BME280;14429;48.346;16.338;2023-07-02T12:17:18;99106.31;;;26.16;47.28
26859;BME280;14429;48.346;16.338;2023-07-02T12:19:43;99114.78;;;26.08;47.56
26859;BME280;14429;48.346;16.338;2023-07-02T12:22:09;99117.44;;;26.21;47.24
26859;BME280;14429;48.346;16.338;2023-07-02T12:24:36;99115.78;;;26.20;47.40
26859;BME280;14429;48.346;16.338;2023-07-02T12:27:01;99120.19;;;26.21;47.35
26859;BME280;14429;48.346;16.338;2023-07-02T12:29:26;99106.50;;;26.21;47.17
26859;BME280;14429;48.346;16.338;2023-07-02T12:31:52;99120.19;;;26.21;45.96
26859;BME280;14429;48.346;16.338;2023-07-02T12:34:17;99110.53;;;26.18;47.69
26859;BME280;14429;48.346;16.338;2023-07-02T12:36:43;99117.69;;;26.19;47.44
26859;BME280;14429;48.346;16.338;2023-07-02T12:39:08;99115.13;;;26.18;47.06
26859;BME280;14429;48.346;16.338;2023-07-02T12:41:35;99118.13;;;26.10;47.59
26859;BME280;14429;48.346;16.338;2023-07-02T12:44:01;99107.41;;;26.15;47.34
26859;BME280;14429;48.346;16.338;2023-07-02T12:46:26;99110.53;;;26.05;47.79
26859;BME280;14429;48.346;16.338;2023-07-02T12:48:52;99114.53;;;26.16;47.00
26859;BME280;14429;48.346;16.338;2023-07-02T12:51:17;99106.75;;;26.19;47.22
26859;BME280;14429;48.346;16.338;2023-07-02T12:53:43;99102.66;;;26.34;46.92
26859;BME280;14429;48.346;16.338;2023-07-02T12:56:08;99113.84;;;26.33;46.76
26859;BME280;14429;48.346;16.338;2023-07-02T12:58:35;99105.81;;;26.31;46.78
26859;BME280;14429;48.346;16.338;2023-07-02T13:01:00;99110.88;;;26.34;46.29
26859;BME280;14429;48.346;16.338;2023-07-02T13:03:25;99100.19;;;26.26;46.66
26859;BME280;14429;48.346;16.338;2023-07-02T13:05:51;99103.31;;;26.30;46.82
26859;BME280;14429;48.346;16.338;2023-07-02T13:08:16;99112.53;;;26.35;46.72